Time;durP1;ratioP1;P1;durP2;ratioP2;P2;SDS_P1;SDS_P2;PMS_P1;PMS_P2;Temp;Humidity;BMP_temperature;BMP_pressure;BME280_temperature;BME280_humidity;BME280_pressure;Samples;Min_cycle;Max_cycle;Signal;HPM_P1;HPM_P2
2023/03/20 00:00:15;;;;;;;1.77;1.52;;;;;;;;;;5015209;28;20042;-32
2023/03/20 00:02:42;;;;;;;2.08;1.63;;;19.10;75.00;;;;;;5015085;28;20144;-31
2023/03/20 00:05:20;;;;;;;1.60;1.50;;;18.70;48.80;;;;;;5014881;28;20050;-31
2023/03/20 00:07:48;;;;;;;3.13;1.73;;;;;;;;;;5014476;28;20782;-30
2023/03/20 00:10:15;;;;;;;2.20;1.75;;;19.00;57.90;;;;;;5006968;28;20041;-31
2023/03/20 00:12:42;;;;;;;2.22;1.63;;;19.10;59.40;;;;;;5014792;28;20045;-31
2023/03/20 00:15:28;;;;;;;2.45;1.48;;;18.60;48.80;;;;;;5014838;28;20465;-31
2023/03/20 00:17:54;;;;;;;1.88;1.60;;;17.90;74.40;;;;;;5014624;28;20046;-31
2023/03/20 00:20:21;;;;;;;2.78;1.60;;;;;;;;;;5014629;28;20046;-31
2023/03/20 00:22:48;;;;;;;2.08;1.65;;;18.90;72.40;;;;;;5013875;28;20053;-31
2023/03/20 00:25:16;;;;;;;1.98;1.60;;;;;;;;;;5006799;28;20128;-31
2023/03/20 00:27:43;;;;;;;2.03;1.73;;;18.90;75.00;;;;;;5014648;28;20056;-31
2023/03/20 00:30:20;;;;;;;1.95;1.55;;;;;;;;;;5014472;28;20605;-31
2023/03/20 00:32:49;;;;;;;1.73;1.63;;;18.50;48.70;;;;;;5014477;28;20046;-31
2023/03/20 00:35:20;;;;;;;1.83;1.42;;;18.50;48.70;;;;;;5014287;28;20053;-31
2023/03/20 00:37:47;;;;;;;2.05;1.60;;;18.40;74.70;;;;;;5013792;28;20048;-31
2023/03/20 00:40:14;;;;;;;1.83;1.50;;;;;;;;;;5014531;28;20046;-31
2023/03/20 00:42:41;;;;;;;2.10;1.70;;;19.50;75.20;;;;;;5013648;28;20050;-31
2023/03/20 00:45:10;;;;;;;1.92;1.50;;;18.50;48.70;;;;;;5013948;28;20046;-31
2023/03/20 00:47:37;;;;;;;2.35;1.42;;;18.60;73.20;;;;;;5009116;28;20052;-31
2023/03/20 00:50:08;;;;;;;1.65;1.38;;;;;;;;;;5011021;28;20413;-31
2023/03/20 00:52:36;;;;;;;2.00;1.67;;;;;;;;;;5009677;28;20050;-31
2023/03/20 00:55:03;;;;;;;1.77;1.58;;;;;;;;;;5013536;28;20529;-32
2023/03/20 00:57:31;;;;;;;1.50;1.40;;;;;;;;;;5014150;28;20054;-31
2023/03/20 00:59:59;;;;;;;2.03;1.48;;;18.40;52.80;;;;;;5014208;28;20550;-31
2023/03/20 01:02:27;;;;;;;2.25;1.40;;;18.80;74.60;;;;;;5013612;28;20115;-31
2023/03/20 01:04:54;;;;;;;2.03;1.50;;;18.50;74.80;;;;;;5014099;28;20465;-31
2023/03/20 01:07:22;;;;;;;2.00;1.50;;;18.40;48.60;;;;;;5014092;28;20045;-31
2023/03/20 01:09:49;;;;;;;1.90;1.50;;;;;;;;;;5013804;28;20072;-32
2023/03/20 01:12:16;;;;;;;1.73;1.40;;;17.20;73.80;;;;;;5013689;28;20050;-31
2023/03/20 01:14:43;;;;;;;1.40;1.30;;;;;;;;;;5013798;28;20134;-31
2023/03/20 01:17:10;;;;;;;1.70;1.50;;;18.00;74.20;;;;;;5013827;28;20060;-31
2023/03/20 01:19:37;;;;;;;2.42;1.65;;;18.10;74.30;;;;;;5013981;28;20049;-31
2023/03/20 01:22:04;;;;;;;1.95;1.58;;;;;;;;;;5013744;28;20046;-31
2023/03/20 01:24:32;;;;;;;1.90;1.38;;;18.40;48.60;;;;;;5013675;28;20049;-31
2023/03/20 01:27:02;;;;;;;1.63;1.35;;;18.60;74.60;;;;;;5013697;28;20060;-30
2023/03/20 01:29:29;;;;;;;2.60;1.60;;;18.50;74.90;;;;;;5013507;28;20491;-31
2023/03/20 01:31:56;;;;;;;1.80;1.50;;;;;;;;;;5013324;28;20079;-31
2023/03/20 01:34:23;;;;;;;1.65;1.30;;;17.40;74.20;;;;;;5013456;28;20056;-31
2023/03/20 01:36:50;;;;;;;2.47;1.40;;;;;;;;;;5013213;28;20056;-31
2023/03/20 01:39:17;;;;;;;1.95;1.42;;;17.10;61.00;;;;;;5013242;28;20042;-31
2023/03/20 01:41:46;;;;;;;1.80;1.30;;;;;;;;;;5013374;28;20053;-31
2023/03/20 01:44:18;;;;;;;1.60;1.40;;;19.30;49.20;;;;;;5012804;28;20129;-31
2023/03/20 01:46:45;;;;;;;2.75;1.40;;;;;;;;;;5012834;28;20495;-31
2023/03/20 01:49:45;;;;;;;1.80;1.50;;;18.30;48.60;;;;;;5013286;28;20046;-31
2023/03/20 01:52:11;;;;;;;1.63;1.40;;;19.40;75.10;;;;;;5012939;28;20129;-31
2023/03/20 01:54:39;;;;;;;1.75;1.42;;;;;;;;;;5013493;28;20438;-31
2023/03/20 01:57:08;;;;;;;1.70;1.38;;;;;;;;;;5013122;28;20418;-31
2023/03/20 01:59:37;;;;;;;1.83;1.48;;;;;;;;;;5012712;28;20046;-31
2023/03/20 02:02:04;;;;;;;2.90;1.70;;;17.20;57.90;;;;;;5012952;28;20053;-31
2023/03/20 02:04:32;;;;;;;1.85;1.35;;;18.20;48.60;;;;;;5012925;28;20041;-30
2023/03/20 02:06:59;;;;;;;1.55;1.25;;;17.70;60.30;;;;;;5013119;28;20045;-31
2023/03/20 02:09:26;;;;;;;2.38;1.65;;;17.90;74.80;;;;;;5012817;28;20046;-31
2023/03/20 02:11:53;;;;;;;1.58;1.20;;;18.20;48.60;;;;;;5012571;28;20046;-31
2023/03/20 02:14:21;;;;;;;2.35;1.33;;;18.20;48.60;;;;;;5012924;28;20054;-30
2023/03/20 02:16:48;;;;;;;1.70;1.33;;;18.20;74.60;;;;;;5012848;28;20046;-30
2023/03/20 02:19:15;;;;;;;2.05;1.35;;;;;;;;;;5012595;28;20050;-31
2023/03/20 02:21:59;;;;;;;2.03;1.50;;;18.10;48.50;;;;;;5012712;28;20054;-31
2023/03/20 02:25:02;;;;;;;1.90;1.40;;;18.20;48.60;;;;;;5012590;28;20073;-31
2023/03/20 02:27:30;;;;;;;1.30;1.20;;;;;;;;;;5011586;28;20096;-31
2023/03/20 02:30:03;;;;;;;2.42;1.60;;;;;;;;;;5012453;28;20056;-31
2023/03/20 02:32:59;;;;;;;3.00;1.48;;;18.10;48.60;;;;;;5012577;28;20077;-31
2023/03/20 02:35:46;;;;;;;1.85;1.30;;;;;;;;;;4979632;28;20057;-31
2023/03/20 02:38:23;;;;;;;2.35;1.60;;;18.10;48.60;;;;;;5012456;28;20056;-31
2023/03/20 02:40:53;;;;;;;2.17;1.27;;;18.10;48.70;;;;;;5012204;28;20058;-31
2023/03/20 02:43:21;;;;;;;1.77;1.35;;;18.70;52.30;;;;;;5012214;28;20064;-31
2023/03/20 02:45:50;;;;;;;2.10;1.50;;;;;;;;;;5012358;28;20056;-31
2023/03/20 02:48:20;;;;;;;1.75;1.30;;;17.40;54.10;;;;;;5012189;28;20131;-31
2023/03/20 02:50:48;;;;;;;2.20;1.42;;;17.60;69.80;;;;;;5012223;28;20050;-31
2023/03/20 02:53:18;;;;;;;2.22;1.35;;;;;;;;;;5012253;28;20149;-31
2023/03/20 02:55:48;;;;;;;2.22;1.50;;;;;;;;;;5011978;28;20068;-31
2023/03/20 02:58:15;;;;;;;1.60;1.30;;;17.50;61.60;;;;;;5011136;28;20578;-31
2023/03/20 03:00:46;;;;;;;2.42;1.30;;;;;;;;;;5012259;28;20050;-31
2023/03/20 03:03:14;;;;;;;1.30;1.20;;;18.00;48.60;;;;;;5011944;28;20482;-31
2023/03/20 03:05:43;;;;;;;2.63;1.52;;;;;;;;;;5012409;28;20046;-31
2023/03/20 03:08:12;;;;;;;2.13;1.40;;;18.80;75.60;;;;;;5008811;28;20136;-31
2023/03/20 03:10:41;;;;;;;2.35;1.35;;;18.00;48.70;;;;;;5012056;28;20128;-31
2023/03/20 03:13:12;;;;;;;1.30;1.20;;;18.90;71.30;;;;;;5011887;28;20052;-31
2023/03/20 03:15:40;;;;;;;1.80;1.40;;;18.20;51.60;;;;;;5012055;28;20050;-31
2023/03/20 03:18:08;;;;;;;1.95;1.20;;;18.00;48.80;;;;;;5012119;28;20108;-31
2023/03/20 03:20:36;;;;;;;2.05;1.40;;;18.00;48.90;;;;;;5011983;28;20046;-31
2023/03/20 03:23:03;;;;;;;2.15;1.38;;;18.10;75.10;;;;;;5011674;28;20052;-30
2023/03/20 03:25:31;;;;;;;2.08;1.40;;;18.00;49.00;;;;;;5011931;28;20056;-31
2023/03/20 03:28:01;;;;;;;2.35;1.30;;;17.90;48.90;;;;;;5011897;28;20084;-31
2023/03/20 03:30:31;;;;;;;1.73;1.30;;;17.10;75.10;;;;;;5011749;28;20046;-31
2023/03/20 03:33:03;;;;;;;2.05;1.30;;;;;;;;;;5011784;28;20108;-31
2023/03/20 03:35:30;;;;;;;2.15;1.40;;;;;;;;;;5011749;28;20140;-32
2023/03/20 03:37:58;;;;;;;2.90;1.58;;;;;;;;;;5011152;28;20116;-31
2023/03/20 03:40:28;;;;;;;3.03;1.63;;;;;;;;;;5011747;28;20052;-31
2023/03/20 03:42:56;;;;;;;2.50;1.52;;;;;;;;;;5011383;28;20050;-31
2023/03/20 03:45:24;;;;;;;2.85;1.65;;;;;;;;;;5011793;28;20470;-31
2023/03/20 03:47:54;;;;;;;3.72;1.58;;;17.90;49.10;;;;;;5011692;28;20503;-31
2023/03/20 03:50:24;;;;;;;2.92;1.90;;;17.90;49.10;;;;;;5011717;28;20093;-31
2023/03/20 03:52:51;;;;;;;2.22;1.60;;;17.90;65.10;;;;;;5011208;28;20124;-31
2023/03/20 03:55:19;;;;;;;3.67;1.50;;;17.90;49.10;;;;;;5011479;28;20054;-31
2023/03/20 03:57:49;;;;;;;2.30;1.60;;;17.20;48.70;;;;;;5011320;28;20425;-31
2023/03/20 04:00:18;;;;;;;2.83;1.55;;;17.90;49.10;;;;;;5011736;28;20053;-31
2023/03/20 04:02:45;;;;;;;2.35;1.50;;;20.40;50.50;;;;;;5011548;28;20085;-31
2023/03/20 04:05:13;;;;;;;2.70;1.60;;;17.90;49.10;;;;;;5011563;28;20050;-31
2023/03/20 04:07:40;;;;;;;2.78;1.65;;;;;;;;;;5011329;28;20052;-31
2023/03/20 04:10:08;;;;;;;3.58;1.65;;;17.60;69.80;;;;;;5014937;28;20072;-31
2023/03/20 04:12:39;;;;;;;2.60;1.70;;;17.80;49.00;;;;;;5015032;28;20050;-31
2023/03/20 04:15:06;;;;;;;2.38;1.48;;;18.00;75.30;;;;;;5014930;28;20132;-31
2023/03/20 04:17:33;;;;;;;2.20;1.42;;;;;;;;;;5015045;28;20092;-31
2023/03/20 04:20:00;;;;;;;3.15;1.70;;;17.20;74.80;;;;;;5014976;28;20056;-31
2023/03/20 04:22:28;;;;;;;2.15;1.50;;;17.80;49.00;;;;;;5014527;28;20050;-31
2023/03/20 04:24:55;;;;;;;2.78;1.65;;;;;;;;;;5014841;28;20136;-31
2023/03/20 04:27:22;;;;;;;2.58;1.67;;;17.60;57.10;;;;;;5014877;28;20052;-31
2023/03/20 04:29:49;;;;;;;1.95;1.60;;;;;;;;;;5014904;28;20050;-31
2023/03/20 04:32:15;;;;;;;2.05;1.70;;;17.70;54.30;;;;;;5014607;28;20042;-31
2023/03/20 04:34:42;;;;;;;2.33;1.60;;;16.40;74.40;;;;;;5014527;28;20076;-31
2023/03/20 04:37:09;;;;;;;3.70;1.70;;;;;;;;;;5013890;28;20060;-31
2023/03/20 04:39:38;;;;;;;2.10;1.50;;;;;;;;;;5014737;28;20060;-31
2023/03/20 04:42:05;;;;;;;2.72;1.65;;;19.00;75.90;;;;;;5014534;28;20084;-31
2023/03/20 04:44:32;;;;;;;2.63;1.75;;;;;;;;;;5014502;28;20053;-31
2023/03/20 04:46:59;;;;;;;2.72;1.80;;;17.30;75.50;;;;;;5014206;28;20050;-31
2023/03/20 04:49:27;;;;;;;3.45;1.98;;;;;;;;;;5014531;28;20050;-31
2023/03/20 04:51:54;;;;;;;2.95;1.90;;;;;;;;;;5014237;28;20050;-32
2023/03/20 04:54:21;;;;;;;3.55;1.48;;;17.40;75.10;;;;;;5014396;28;20052;-31
2023/03/20 04:56:49;;;;;;;3.38;1.75;;;17.80;49.30;;;;;;5013892;28;20053;-31
2023/03/20 04:59:16;;;;;;;2.15;1.58;;;;;;;;;;5013915;28;20046;-31
2023/03/20 05:01:43;;;;;;;2.30;1.88;;;17.70;66.10;;;;;;4994484;28;20514;-31
2023/03/20 05:04:10;;;;;;;3.33;1.98;;;18.30;75.70;;;;;;5010249;28;20058;-31
2023/03/20 05:06:37;;;;;;;3.13;2.00;;;;;;;;;;5014272;28;20046;-31
2023/03/20 05:09:04;;;;;;;6.57;2.55;;;18.20;76.10;;;;;;5013829;28;20137;-31
2023/03/20 05:11:31;;;;;;;2.63;2.00;;;18.20;50.40;;;;;;5014204;28;20442;-31
2023/03/20 05:13:59;;;;;;;3.22;2.00;;;;;;;;;;5013787;28;20410;-31
2023/03/20 05:16:26;;;;;;;4.65;2.20;;;16.30;74.70;;;;;;5013959;28;20050;-31
2023/03/20 05:18:53;;;;;;;4.22;2.13;;;;;;;;;;5013708;28;20068;-31
2023/03/20 05:21:19;;;;;;;3.50;1.90;;;16.60;74.90;;;;;;5012722;28;20046;-31
2023/03/20 05:23:47;;;;;;;2.97;1.70;;;;;;;;;;5013198;28;20046;-31
2023/03/20 05:26:13;;;;;;;2.25;1.80;;;17.20;66.30;;;;;;5013214;28;20053;-31
2023/03/20 05:28:40;;;;;;;3.60;1.92;;;17.50;75.50;;;;;;5013565;28;20054;-31
2023/03/20 05:31:08;;;;;;;3.17;2.00;;;17.60;49.40;;;;;;5013423;28;20483;-31
2023/03/20 05:33:35;;;;;;;4.20;2.40;;;;;;;;;;5013188;28;20057;-31
2023/03/20 05:36:02;;;;;;;4.28;2.30;;;;;;;;;;5013017;28;20053;-31
2023/03/20 05:38:30;;;;;;;3.08;2.10;;;;;;;;;;5013182;28;20583;-31
2023/03/20 05:40:57;;;;;;;3.95;1.95;;;;;;;;;;5013443;28;20050;-31
2023/03/20 05:43:24;;;;;;;3.88;1.90;;;17.60;72.70;;;;;;5013282;28;20045;-31
2023/03/20 05:45:51;;;;;;;2.47;1.85;;;;;;;;;;5013346;28;20053;-31
2023/03/20 05:48:20;;;;;;;3.10;1.83;;;;;;;;;;5013029;28;20060;-31
2023/03/20 05:50:46;;;;;;;4.32;1.80;;;17.90;76.00;;;;;;5012269;28;20056;-31
2023/03/20 05:53:14;;;;;;;4.45;2.13;;;;;;;;;;5013078;28;20166;-31
2023/03/20 05:55:43;;;;;;;3.00;2.10;;;17.80;74.30;;;;;;5013076;28;20049;-31
2023/03/20 05:58:10;;;;;;;3.90;1.95;;;;;;;;;;5012838;28;20077;-32
2023/03/20 06:00:37;;;;;;;2.47;2.00;;;17.50;76.00;;;;;;5013339;28;20054;-31
2023/03/20 06:03:05;;;;;;;3.03;1.88;;;;;;;;;;5012549;28;20049;-31
2023/03/20 06:05:33;;;;;;;2.60;1.75;;;17.70;49.50;;;;;;5012860;28;20491;-31
2023/03/20 06:08:01;;;;;;;4.05;2.00;;;;;;;;;;5013052;28;20134;-31
2023/03/20 06:10:28;;;;;;;2.97;1.80;;;17.60;75.40;;;;;;5012713;28;20418;-31
2023/03/20 06:12:56;;;;;;;2.55;2.10;;;;;;;;;;5012781;28;20061;-31
2023/03/20 06:15:23;;;;;;;3.72;1.80;;;17.60;62.10;;;;;;5012810;28;20061;-31
2023/03/20 06:17:50;;;;;;;3.30;2.10;;;17.90;76.00;;;;;;5012872;28;20060;-31
2023/03/20 06:20:17;;;;;;;2.72;1.90;;;17.70;49.40;;;;;;5012589;28;20088;-31
2023/03/20 06:22:45;;;;;;;4.00;2.10;;;17.70;49.40;;;;;;5012623;28;20045;-31
2023/03/20 06:25:12;;;;;;;3.80;1.80;;;17.90;75.60;;;;;;5012515;28;20056;-31
2023/03/20 06:27:39;;;;;;;2.97;1.90;;;;;;;;;;5012696;28;20578;-31
2023/03/20 06:30:07;;;;;;;2.90;1.63;;;;;;;;;;5012832;28;20410;-31
2023/03/20 06:32:33;;;;;;;2.38;1.80;;;16.20;66.60;;;;;;5012224;28;20050;-31
2023/03/20 06:35:00;;;;;;;2.53;1.85;;;17.50;62.10;;;;;;5012287;28;20521;-31
2023/03/20 06:37:27;;;;;;;3.40;1.92;;;;;;;;;;5011962;28;20060;-31
2023/03/20 06:39:55;;;;;;;2.78;1.92;;;;;;;;;;5012408;28;20073;-31
2023/03/20 06:42:22;;;;;;;3.58;1.80;;;18.00;75.60;;;;;;5012375;28;20045;-31
2023/03/20 06:44:49;;;;;;;2.33;1.60;;;;;;;;;;5012616;28;20173;-31
2023/03/20 06:47:16;;;;;;;3.92;1.92;;;17.90;71.50;;;;;;5011822;28;20042;-31
2023/03/20 06:49:43;;;;;;;2.40;1.80;;;;;;;;;;5012270;28;20054;-31
2023/03/20 06:52:11;;;;;;;2.85;1.80;;;;;;;;;;5011634;28;20115;-31
2023/03/20 06:54:38;;;;;;;3.60;1.98;;;18.20;63.00;;;;;;5012221;28;20436;-31
2023/03/20 06:57:06;;;;;;;4.47;1.90;;;17.80;49.30;;;;;;5012469;28;20108;-31
2023/03/20 06:59:33;;;;;;;2.90;1.90;;;19.10;76.00;;;;;;5012066;28;20050;-31
2023/03/20 07:02:00;;;;;;;2.70;2.00;;;;;;;;;;5012039;28;20609;-31
2023/03/20 07:04:26;;;;;;;4.43;1.90;;;17.60;75.60;;;;;;5011623;28;20410;-31
2023/03/20 07:06:53;;;;;;;2.00;1.70;;;18.30;76.10;;;;;;5012129;28;20050;-31
2023/03/20 07:09:22;;;;;;;2.50;1.90;;;;;;;;;;5012169;28;20057;-31
2023/03/20 07:11:49;;;;;;;2.95;1.70;;;;;;;;;;5011936;28;20133;-31
2023/03/20 07:14:17;;;;;;;2.88;1.70;;;17.90;49.00;;;;;;5011827;28;20434;-32
2023/03/20 07:16:44;;;;;;;4.28;1.98;;;;;;;;;;5011805;28;20050;-31
2023/03/20 07:19:12;;;;;;;2.88;1.75;;;;;;;;;;5011670;28;20056;-31
2023/03/20 07:21:39;;;;;;;2.95;1.95;;;17.60;51.80;;;;;;5011742;28;20046;-31
2023/03/20 07:24:07;;;;;;;2.75;1.85;;;17.70;74.90;;;;;;5009047;28;20517;-31
2023/03/20 07:26:33;;;;;;;2.17;1.55;;;17.80;74.90;;;;;;4993361;28;20050;-31
2023/03/20 07:29:00;;;;;;;2.95;1.98;;;;;;;;;;4992330;28;20078;-31
2023/03/20 07:31:29;;;;;;;3.03;2.05;;;;;;;;;;5001242;28;20507;-31
2023/03/20 07:33:57;;;;;;;2.47;1.70;;;;;;;;;;5011169;28;20041;-31
2023/03/20 07:36:23;;;;;;;2.40;1.60;;;18.50;67.00;;;;;;5011166;28;20046;-31
2023/03/20 07:38:51;;;;;;;2.08;1.52;;;;;;;;;;5011876;28;20050;-31
2023/03/20 07:41:18;;;;;;;2.45;1.45;;;17.90;74.90;;;;;;5011635;28;20046;-31
2023/03/20 07:43:45;;;;;;;5.18;1.92;;;;;;;;;;5013173;28;20048;-31
2023/03/20 07:46:12;;;;;;;3.33;1.60;;;18.10;74.40;;;;;;5015508;28;20053;-31
2023/03/20 07:48:40;;;;;;;3.28;1.50;;;;;;;;;;5015065;28;20049;-31
2023/03/20 07:51:08;;;;;;;2.42;1.55;;;;;;;;;;5015706;28;20056;-31
2023/03/20 07:53:34;;;;;;;2.15;1.50;;;18.00;73.80;;;;;;5014902;28;20049;-31
2023/03/20 07:56:01;;;;;;;1.85;1.40;;;;;;;;;;5015028;28;20041;-31
2023/03/20 07:58:28;;;;;;;2.80;1.40;;;19.20;74.40;;;;;;5014065;28;20054;-31
2023/03/20 08:00:56;;;;;;;2.15;1.40;;;19.10;47.80;;;;;;5014644;28;20045;-31
2023/03/20 08:03:23;;;;;;;2.42;1.55;;;;;;;;;;5014428;28;20069;-31
2023/03/20 08:05:52;;;;;;;2.17;1.40;;;;;;;;;;5009443;28;20058;-31
2023/03/20 08:08:18;;;;;;;2.03;1.38;;;18.80;73.10;;;;;;5015076;28;20056;-31
2023/03/20 08:10:46;;;;;;;1.80;1.40;;;;;;;;;;5015390;28;20134;-31
2023/03/20 08:13:13;;;;;;;3.60;1.42;;;19.20;73.00;;;;;;5014994;28;20108;-31
2023/03/20 08:15:39;;;;;;;3.15;1.58;;;18.70;73.10;;;;;;5014834;28;20418;-31
2023/03/20 08:18:06;;;;;;;2.42;1.50;;;;;;;;;;5014399;28;20050;-31
2023/03/20 08:20:34;;;;;;;2.35;1.20;;;;;;;;;;4995917;28;20046;-31
2023/03/20 08:23:02;;;;;;;2.97;1.30;;;;;;;;;;5001253;28;20052;-31
2023/03/20 08:25:32;;;;;;;2.67;1.52;;;;;;;;;;5014959;28;20060;-31
2023/03/20 08:27:59;;;;;;;3.00;1.50;;;;;;;;;;4996675;28;20053;-31
2023/03/20 08:30:26;;;;;;;2.33;1.50;;;19.90;72.50;;;;;;5014545;28;20498;-31
2023/03/20 08:32:53;;;;;;;4.03;1.58;;;;;;;;;;5014686;28;20056;-31
2023/03/20 08:35:20;;;;;;;1.88;1.30;;;19.90;72.50;;;;;;5014682;28;20060;-31
2023/03/20 08:37:47;;;;;;;1.50;1.23;;;;;;;;;;5011080;28;20096;-31
2023/03/20 08:40:15;;;;;;;2.72;1.30;;;20.00;70.30;;;;;;5014851;28;20053;-31
2023/03/20 08:42:42;;;;;;;1.45;1.20;;;;;;;;;;5013704;28;20049;-31
2023/03/20 08:45:10;;;;;;;2.70;1.33;;;20.30;46.40;;;;;;5011919;28;20069;-31
2023/03/20 08:47:37;;;;;;;2.72;1.50;;;;;;;;;;5007983;28;20048;-31
2023/03/20 08:50:06;;;;;;;3.63;1.42;;;;;;;;;;5014484;28;20053;-31
2023/03/20 08:52:32;;;;;;;1.90;1.25;;;20.20;71.80;;;;;;5014003;28;20129;-31
2023/03/20 08:54:59;;;;;;;2.58;1.65;;;;;;;;;;5012552;28;20073;-31
2023/03/20 08:57:28;;;;;;;3.10;1.30;;;;;;;;;;5014135;28;20072;-32
2023/03/20 08:59:54;;;;;;;2.97;1.30;;;19.60;71.50;;;;;;5014208;28;20410;-32
2023/03/20 09:02:22;;;;;;;2.38;1.50;;;;;;;;;;5014193;28;20052;-32
2023/03/20 09:04:48;;;;;;;3.47;1.30;;;20.60;71.70;;;;;;5014296;28;20045;-32
2023/03/20 09:07:15;;;;;;;2.88;1.40;;;21.10;72.20;;;;;;4994565;28;20056;-32
2023/03/20 09:09:42;;;;;;;1.83;1.30;;;;;;;;;;4994425;28;20064;-33
2023/03/20 09:12:09;;;;;;;1.90;1.40;;;20.80;71.30;;;;;;4994287;28;20057;-32
2023/03/20 09:14:37;;;;;;;2.08;1.25;;;20.80;45.80;;;;;;4994548;28;20418;-32
2023/03/20 09:17:04;;;;;;;4.10;1.45;;;;;;;;;;4994505;28;20086;-32
2023/03/20 09:19:31;;;;;;;2.17;1.30;;;;;;;;;;4994370;28;20051;-32
2023/03/20 09:21:58;;;;;;;1.80;1.10;;;;;;;;;;4994077;28;20046;-32
2023/03/20 09:24:25;;;;;;;2.67;1.38;;;21.10;71.50;;;;;;5000563;28;20181;-32
2023/03/20 09:26:52;;;;;;;4.68;1.55;;;20.90;70.80;;;;;;5013337;28;20392;-32
2023/03/20 09:29:19;;;;;;;5.40;1.77;;;20.20;54.40;;;;;;5013814;28;20060;-32
2023/03/20 09:31:47;;;;;;;2.13;1.30;;;;;;;;;;5013459;28;20064;-32
2023/03/20 09:34:14;;;;;;;3.20;1.30;;;21.80;71.30;;;;;;5013361;28;20050;-32
2023/03/20 09:36:41;;;;;;;2.97;1.50;;;;;;;;;;5012283;28;20495;-32
2023/03/20 09:39:08;;;;;;;2.58;1.30;;;20.80;59.20;;;;;;5013367;28;20053;-32
2023/03/20 09:41:36;;;;;;;3.53;1.58;;;;;;;;;;5013189;28;20511;-32
2023/03/20 09:44:15;;;;;;;1.83;1.15;;;21.20;45.40;;;;;;5013409;28;20053;-32
2023/03/20 09:46:50;;;;;;;2.63;1.40;;;21.30;45.40;;;;;;5013106;28;20049;-32
2023/03/20 09:49:20;;;;;;;3.33;1.30;;;21.30;45.30;;;;;;5013047;28;20046;-33
2023/03/20 09:51:49;;;;;;;3.38;1.38;;;21.30;45.20;;;;;;5013177;28;20050;-32
2023/03/20 09:54:19;;;;;;;2.60;1.33;;;21.40;45.20;;;;;;5012862;28;20141;-32
2023/03/20 09:56:46;;;;;;;2.13;1.33;;;21.30;71.10;;;;;;5013479;28;20073;-32
2023/03/20 09:59:14;;;;;;;1.67;1.20;;;;;;;;;;5012818;28;20524;-32
2023/03/20 10:01:44;;;;;;;2.10;1.15;;;21.50;45.10;;;;;;5013073;28;20060;-32
2023/03/20 10:04:12;;;;;;;1.58;1.23;;;21.60;70.60;;;;;;5012422;28;20107;-32
2023/03/20 10:06:39;;;;;;;1.65;1.20;;;22.80;70.80;;;;;;5012490;28;20072;-32
2023/03/20 10:09:07;;;;;;;1.35;1.10;;;;;;;;;;5012756;28;20072;-33
2023/03/20 10:11:44;;;;;;;2.45;1.42;;;21.50;45.00;;;;;;5013163;28;20068;-30
2023/03/20 10:14:17;;;;;;;3.03;1.35;;;21.40;45.00;;;;;;5012839;28;20046;-29
2023/03/20 10:16:46;;;;;;;2.05;1.40;;;;;;;;;;5012626;28;20552;-30
2023/03/20 10:19:19;;;;;;;3.33;1.42;;;21.40;45.00;;;;;;5012424;28;20513;-29
2023/03/20 10:21:47;;;;;;;2.17;1.30;;;21.40;45.00;;;;;;5012431;28;20061;-30
2023/03/20 10:24:18;;;;;;;2.55;1.40;;;21.40;45.00;;;;;;5012340;28;20053;-29
2023/03/20 10:26:45;;;;;;;1.77;1.20;;;;;;;;;;5012167;28;20042;-29
2023/03/20 10:29:16;;;;;;;3.53;1.45;;;21.30;45.00;;;;;;5012144;28;20057;-29
2023/03/20 10:31:44;;;;;;;1.88;1.10;;;;;;;;;;5011919;28;20141;-29
2023/03/20 10:34:24;;;;;;;1.70;1.20;;;21.20;45.10;;;;;;5012095;28;20046;-29
2023/03/20 10:36:56;;;;;;;2.00;1.30;;;21.20;45.10;;;;;;5006755;28;20045;-29
2023/03/20 10:39:33;;;;;;;3.47;1.20;;;21.20;45.10;;;;;;5011938;28;20534;-30
2023/03/20 10:42:01;;;;;;;3.63;1.30;;;;;;;;;;5012165;28;20582;-29
2023/03/20 10:44:31;;;;;;;2.15;1.50;;;21.10;45.20;;;;;;5009575;28;20046;-29
2023/03/20 10:46:57;;;;;;;2.33;1.58;;;21.60;70.50;;;;;;5012268;28;20125;-29
2023/03/20 10:49:30;;;;;;;1.83;1.30;;;21.10;45.30;;;;;;5011273;28;20533;-29
2023/03/20 10:51:58;;;;;;;1.45;1.13;;;21.00;45.30;;;;;;5011943;28;20078;-29
2023/03/20 10:54:27;;;;;;;2.10;1.42;;;;;;;;;;5011530;28;20068;-29
2023/03/20 10:56:55;;;;;;;1.98;1.20;;;20.00;70.00;;;;;;5011761;28;20048;-29
2023/03/20 10:59:23;;;;;;;2.38;1.20;;;20.70;69.30;;;;;;5011608;28;20061;-29
2023/03/20 11:01:50;;;;;;;2.03;1.20;;;21.10;71.10;;;;;;5011882;28;20050;-29
2023/03/20 11:04:16;;;;;;;3.08;1.33;;;20.90;71.00;;;;;;5008891;28;20410;-29
2023/03/20 11:06:47;;;;;;;1.70;1.15;;;20.70;45.40;;;;;;5012145;28;20064;-30
2023/03/20 11:09:18;;;;;;;2.38;1.33;;;20.70;45.50;;;;;;5011966;28;20141;-29
2023/03/20 11:11:46;;;;;;;2.25;1.38;;;;;;;;;;5012303;28;20054;-29
2023/03/20 11:14:17;;;;;;;1.70;1.30;;;20.60;45.50;;;;;;5011968;28;20398;-29
2023/03/20 11:16:47;;;;;;;2.17;1.20;;;21.30;51.50;;;;;;5012165;28;20137;-30
2023/03/20 11:19:14;;;;;;;1.98;1.40;;;;;;;;;;5014372;28;20049;-29
2023/03/20 11:21:47;;;;;;;2.65;1.35;;;20.50;45.70;;;;;;5015914;28;20136;-28
2023/03/20 11:24:24;;;;;;;2.28;1.40;;;20.50;45.70;;;;;;5016084;28;20058;-30
2023/03/20 11:26:51;;;;;;;2.67;1.30;;;20.80;71.20;;;;;;5016229;28;20054;-30
2023/03/20 11:29:21;;;;;;;3.13;1.48;;;20.40;45.70;;;;;;5016004;28;20558;-30
2023/03/20 11:31:48;;;;;;;4.15;1.48;;;19.60;70.50;;;;;;5015158;28;20136;-29
2023/03/20 11:34:23;;;;;;;3.03;1.45;;;;;;;;;;5015458;28;20076;-29
2023/03/20 11:36:55;;;;;;;4.15;1.40;;;20.30;45.80;;;;;;5015429;28;20133;-29
2023/03/20 11:39:23;;;;;;;2.78;1.50;;;20.20;45.80;;;;;;5015900;28;20088;-30
2023/03/20 11:41:50;;;;;;;2.00;1.33;;;;;;;;;;5015386;28;20046;-29
2023/03/20 11:44:24;;;;;;;3.15;1.70;;;20.20;45.90;;;;;;5015032;28;20125;-29
2023/03/20 11:46:56;;;;;;;2.73;1.83;;;20.20;45.90;;;;;;5013468;28;20503;-29
2023/03/20 11:49:24;;;;;;;1.88;1.33;;;19.90;45.90;;;;;;5015580;28;20065;-29
2023/03/20 11:51:51;;;;;;;2.35;1.48;;;;;;;;;;5015619;28;20124;-29
2023/03/20 11:54:20;;;;;;;3.10;1.55;;;20.10;46.00;;;;;;5015147;28;20049;-29
2023/03/20 11:56:54;;;;;;;2.72;1.42;;;20.00;46.00;;;;;;5015472;28;20056;-29
2023/03/20 11:59:21;;;;;;;1.60;1.40;;;;;;;;;;5014861;28;20061;-29
2023/03/20 12:01:50;;;;;;;3.28;1.58;;;20.00;46.00;;;;;;5015180;28;20056;-29
2023/03/20 12:04:17;;;;;;;2.40;1.50;;;;;;;;;;5014033;28;20041;-30
2023/03/20 12:06:46;;;;;;;2.72;1.50;;;;;;;;;;5015274;28;20049;-30
2023/03/20 12:09:30;;;;;;;3.50;1.60;;;19.90;46.10;;;;;;5014541;28;20042;-30
2023/03/20 12:11:59;;;;;;;2.55;1.52;;;19.80;46.20;;;;;;5012630;28;20156;-29
2023/03/20 12:14:28;;;;;;;3.88;1.75;;;;;;;;;;5014628;28;20056;-29
2023/03/20 12:16:57;;;;;;;2.17;1.55;;;19.80;46.20;;;;;;5015135;28;20060;-29
2023/03/20 12:19:26;;;;;;;2.65;1.55;;;19.80;46.30;;;;;;5014434;28;20494;-29
2023/03/20 12:21:55;;;;;;;3.88;1.70;;;20.70;52.00;;;;;;5014759;28;20046;-30
2023/03/20 12:24:26;;;;;;;2.90;1.70;;;19.70;46.40;;;;;;5012220;28;20516;-29
2023/03/20 12:26:58;;;;;;;3.05;1.70;;;19.70;46.40;;;;;;5004431;28;20042;-29
2023/03/20 12:29:27;;;;;;;3.42;1.63;;;19.60;46.30;;;;;;5012878;28;20049;-29
2023/03/20 12:31:54;;;;;;;2.92;1.80;;;;;;;;;;5013558;28;20519;-30
2023/03/20 12:34:22;;;;;;;2.65;1.50;;;;;;;;;;5014144;28;20057;-29
2023/03/20 12:36:51;;;;;;;3.38;1.70;;;;;;;;;;5004231;28;20041;-29
2023/03/20 12:39:22;;;;;;;4.32;1.98;;;19.60;46.60;;;;;;5013972;28;20049;-29
2023/03/20 12:41:52;;;;;;;3.60;1.73;;;;;;;;;;5014086;28;20049;-29
2023/03/20 12:44:36;;;;;;;3.25;1.83;;;19.50;46.50;;;;;;5013901;28;20044;-30
2023/03/20 12:47:21;;;;;;;3.15;1.65;;;19.40;46.60;;;;;;5012107;28;20053;-29
2023/03/20 12:49:51;;;;;;;2.38;1.40;;;19.40;46.60;;;;;;5012046;28;20100;-30
2023/03/20 12:52:22;;;;;;;2.85;1.50;;;19.40;46.60;;;;;;5013664;28;20128;-30
2023/03/20 12:55:05;;;;;;;3.35;1.50;;;19.40;46.60;;;;;;5013758;28;20047;-29
2023/03/20 12:57:34;;;;;;;2.80;1.95;;;19.40;46.70;;;;;;5012537;28;20050;-30
2023/03/20 13:00:11;;;;;;;2.70;1.40;;;19.30;46.60;;;;;;5011262;28;20124;-29
2023/03/20 13:02:45;;;;;;;2.63;1.60;;;19.30;46.70;;;;;;5013743;28;20041;-30
2023/03/20 13:05:18;;;;;;;3.22;1.60;;;19.30;46.70;;;;;;5013448;28;20499;-30
2023/03/20 13:07:49;;;;;;;3.05;1.48;;;;;;;;;;5011391;28;20569;-30
2023/03/20 13:10:20;;;;;;;3.10;1.60;;;19.30;46.70;;;;;;5013602;28;20050;-29
2023/03/20 13:12:52;;;;;;;3.50;1.70;;;19.20;46.60;;;;;;5013114;28;20522;-30
2023/03/20 13:15:35;;;;;;;3.90;1.60;;;19.20;46.60;;;;;;5013279;28;20046;-30
2023/03/20 13:18:05;;;;;;;2.72;1.60;;;19.30;46.70;;;;;;5010761;28;20525;-30
2023/03/20 13:20:33;;;;;;;2.50;1.48;;;19.40;69.40;;;;;;5013276;28;20056;-30
2023/03/20 13:23:12;;;;;;;2.53;1.58;;;19.30;46.70;;;;;;5013397;28;20038;-30
2023/03/20 13:25:52;;;;;;;3.45;1.63;;;;;;;;;;5012940;28;20121;-30
2023/03/20 13:28:22;;;;;;;2.95;1.48;;;19.10;46.80;;;;;;4994027;28;20097;-30
2023/03/20 13:30:51;;;;;;;2.50;1.65;;;;;;;;;;4997985;28;20050;-29
2023/03/20 13:33:32;;;;;;;2.17;1.50;;;19.10;46.80;;;;;;5012809;28;20406;-30
2023/03/20 13:36:00;;;;;;;4.43;1.80;;;20.10;73.00;;;;;;5013349;28;20100;-30